sensor_id;sensor_type;location;lat;lon;timestamp;pressure;altitude;pressure_sealevel;temperature;humidity
26775;BME280;14362;51.902;7.626;2022-09-03T00:00:09;100705.63;;;18.51;46.67
26775;BME280;14362;51.902;7.626;2022-09-03T00:04:16;100705.56;;;18.47;46.45
26775;BME280;14362;51.902;7.626;2022-09-03T00:08:29;100704.19;;;18.38;47.06
26775;BME280;14362;51.902;7.626;2022-09-03T00:12:35;100701.53;;;18.26;47.32
26775;BME280;14362;51.902;7.626;2022-09-03T00:16:43;100695.09;;;18.25;47.41
26775;BME280;14362;51.902;7.626;2022-09-03T00:20:49;100699.56;;;18.26;47.35
26775;BME280;14362;51.902;7.626;2022-09-03T00:24:53;100693.31;;;18.17;47.66
26775;BME280;14362;51.902;7.626;2022-09-03T00:28:58;100694.81;;;18.11;48.38
26775;BME280;14362;51.902;7.626;2022-09-03T00:33:06;100700.31;;;18.04;48.32
26775;BME280;14362;51.902;7.626;2022-09-03T00:37:10;100703.50;;;18.03;48.33
26775;BME280;14362;51.902;7.626;2022-09-03T00:41:22;100699.00;;;17.98;48.47
26775;BME280;14362;51.902;7.626;2022-09-03T00:45:35;100702.50;;;17.92;48.87
26775;BME280;14362;51.902;7.626;2022-09-03T00:49:47;100695.47;;;17.82;48.94
26775;BME280;14362;51.902;7.626;2022-09-03T00:53:59;100693.78;;;17.78;49.39
26775;BME280;14362;51.902;7.626;2022-09-03T00:58:13;100697.41;;;17.78;49.33
26775;BME280;14362;51.902;7.626;2022-09-03T01:02:20;100695.66;;;17.70;49.45
26775;BME280;14362;51.902;7.626;2022-09-03T01:06:34;100696.31;;;17.64;49.92
26775;BME280;14362;51.902;7.626;2022-09-03T01:10:45;100690.88;;;17.55;50.09
26775;BME280;14362;51.902;7.626;2022-09-03T01:15:01;100689.69;;;17.56;51.02
26775;BME280;14362;51.902;7.626;2022-09-03T01:19:14;100689.56;;;17.49;50.59
26775;BME280;14362;51.902;7.626;2022-09-03T01:23:55;100687.50;;;17.47;50.53
26775;BME280;14362;51.902;7.626;2022-09-03T01:28:18;100689.81;;;17.41;50.75
26775;BME280;14362;51.902;7.626;2022-09-03T01:32:26;100704.13;;;17.33;51.17
26775;BME280;14362;51.902;7.626;2022-09-03T01:36:37;100698.34;;;17.29;51.47
26775;BME280;14362;51.902;7.626;2022-09-03T01:40:47;100700.28;;;17.25;51.79
26775;BME280;14362;51.902;7.626;2022-09-03T01:45:16;100700.94;;;17.19;51.83
26775;BME280;14362;51.902;7.626;2022-09-03T01:49:27;100699.63;;;17.13;51.78
26775;BME280;14362;51.902;7.626;2022-09-03T01:53:45;100700.63;;;17.05;52.29
26775;BME280;14362;51.902;7.626;2022-09-03T01:57:56;100691.28;;;17.01;52.66
26775;BME280;14362;51.902;7.626;2022-09-03T02:02:02;100682.75;;;16.97;53.40
26775;BME280;14362;51.902;7.626;2022-09-03T02:06:06;100695.47;;;16.91;53.66
26775;BME280;14362;51.902;7.626;2022-09-03T02:10:12;100690.97;;;16.87;54.21
26775;BME280;14362;51.902;7.626;2022-09-03T02:14:14;100701.25;;;16.79;54.21
26775;BME280;14362;51.902;7.626;2022-09-03T02:18:19;100688.94;;;16.68;54.90
26775;BME280;14362;51.902;7.626;2022-09-03T02:22:21;100688.94;;;16.68;54.79
26775;BME280;14362;51.902;7.626;2022-09-03T02:26:23;100685.94;;;16.61;55.07
26775;BME280;14362;51.902;7.626;2022-09-03T02:30:25;100696.66;;;16.56;55.41
26775;BME280;14362;51.902;7.626;2022-09-03T02:34:28;100688.03;;;16.49;56.02
26775;BME280;14362;51.902;7.626;2022-09-03T02:38:30;100681.78;;;16.40;56.66
26775;BME280;14362;51.902;7.626;2022-09-03T02:42:31;100685.59;;;16.32;56.85
26775;BME280;14362;51.902;7.626;2022-09-03T02:46:35;100693.22;;;16.32;57.15
26775;BME280;14362;51.902;7.626;2022-09-03T02:50:42;100690.53;;;16.23;57.42
26775;BME280;14362;51.902;7.626;2022-09-03T02:54:44;100684.13;;;16.23;57.94
26775;BME280;14362;51.902;7.626;2022-09-03T02:58:45;100690.38;;;16.16;58.33
26775;BME280;14362;51.902;7.626;2022-09-03T03:02:46;100687.81;;;16.11;58.79
26775;BME280;14362;51.902;7.626;2022-09-03T03:06:51;100685.28;;;16.06;58.66
26775;BME280;14362;51.902;7.626;2022-09-03T03:10:53;100682.31;;;15.99;59.64
26775;BME280;14362;51.902;7.626;2022-09-03T03:14:56;100673.16;;;16.02;59.95
26775;BME280;14362;51.902;7.626;2022-09-03T03:18:57;100676.03;;;15.90;59.48
26775;BME280;14362;51.902;7.626;2022-09-03T03:23:01;100666.31;;;15.88;60.29
26775;BME280;14362;51.902;7.626;2022-09-03T03:27:03;100664.16;;;15.81;60.37
26775;BME280;14362;51.902;7.626;2022-09-03T03:31:08;100668.47;;;15.79;60.15
26775;BME280;14362;51.902;7.626;2022-09-03T03:35:10;100677.03;;;15.82;60.28
26775;BME280;14362;51.902;7.626;2022-09-03T03:39:13;100675.56;;;15.73;61.22
26775;BME280;14362;51.902;7.626;2022-09-03T03:43:14;100674.97;;;15.67;61.15
26775;BME280;14362;51.902;7.626;2022-09-03T03:47:15;100678.97;;;15.66;60.83
26775;BME280;14362;51.902;7.626;2022-09-03T03:51:17;100677.69;;;15.64;61.80
26775;BME280;14362;51.902;7.626;2022-09-03T03:55:20;100675.97;;;15.59;62.01
26775;BME280;14362;51.902;7.626;2022-09-03T03:59:22;100670.97;;;15.53;61.68
26775;BME280;14362;51.902;7.626;2022-09-03T04:03:23;100675.44;;;15.54;62.57
26775;BME280;14362;51.902;7.626;2022-09-03T04:07:24;100672.66;;;15.42;62.38
26775;BME280;14362;51.902;7.626;2022-09-03T04:11:27;100661.06;;;15.43;63.13
26775;BME280;14362;51.902;7.626;2022-09-03T04:15:28;100666.56;;;15.40;63.17
26775;BME280;14362;51.902;7.626;2022-09-03T04:19:30;100663.59;;;15.33;63.93
26775;BME280;14362;51.902;7.626;2022-09-03T04:23:32;100665.09;;;15.31;63.02
26775;BME280;14362;51.902;7.626;2022-09-03T04:27:35;100665.84;;;15.28;64.22
26775;BME280;14362;51.902;7.626;2022-09-03T04:31:38;100655.16;;;15.21;64.00
26775;BME280;14362;51.902;7.626;2022-09-03T04:36:04;100661.94;;;15.20;63.97
26775;BME280;14362;51.902;7.626;2022-09-03T04:40:07;100652.34;;;15.21;63.89
26775;BME280;14362;51.902;7.626;2022-09-03T04:44:09;100653.88;;;15.19;63.99
26775;BME280;14362;51.902;7.626;2022-09-03T04:48:11;100657.53;;;15.19;64.11
26775;BME280;14362;51.902;7.626;2022-09-03T04:52:12;100657.06;;;15.17;64.52
26775;BME280;14362;51.902;7.626;2022-09-03T04:56:15;100654.25;;;15.17;64.49
26775;BME280;14362;51.902;7.626;2022-09-03T05:00:19;100653.44;;;15.17;63.89
26775;BME280;14362;51.902;7.626;2022-09-03T05:04:20;100656.47;;;15.12;64.67
26775;BME280;14362;51.902;7.626;2022-09-03T05:08:22;100650.63;;;15.17;65.20
26775;BME280;14362;51.902;7.626;2022-09-03T05:12:24;100659.41;;;15.15;64.67
26775;BME280;14362;51.902;7.626;2022-09-03T05:16:28;100660.69;;;15.18;65.11
26775;BME280;14362;51.902;7.626;2022-09-03T05:20:30;100664.31;;;15.18;65.59
26775;BME280;14362;51.902;7.626;2022-09-03T05:24:31;100665.03;;;15.15;64.57
26775;BME280;14362;51.902;7.626;2022-09-03T05:28:34;100657.16;;;15.21;64.60
26775;BME280;14362;51.902;7.626;2022-09-03T05:32:38;100665.97;;;15.19;64.70
26775;BME280;14362;51.902;7.626;2022-09-03T05:36:39;100656.44;;;15.24;65.36
26775;BME280;14362;51.902;7.626;2022-09-03T05:40:41;100652.97;;;15.27;64.99
26775;BME280;14362;51.902;7.626;2022-09-03T05:44:42;100653.44;;;15.29;64.63
26775;BME280;14362;51.902;7.626;2022-09-03T05:48:45;100646.81;;;15.37;64.92
26775;BME280;14362;51.902;7.626;2022-09-03T05:52:46;100654.06;;;15.38;64.52
26775;BME280;14362;51.902;7.626;2022-09-03T05:56:48;100647.94;;;15.47;64.55
26775;BME280;14362;51.902;7.626;2022-09-03T06:00:49;100654.75;;;15.46;64.66
26775;BME280;14362;51.902;7.626;2022-09-03T06:04:52;100647.78;;;15.56;64.11
26775;BME280;14362;51.902;7.626;2022-09-03T06:08:58;100660.50;;;15.65;64.00
26775;BME280;14362;51.902;7.626;2022-09-03T06:13:00;100665.03;;;15.70;63.94
26775;BME280;14362;51.902;7.626;2022-09-03T06:17:02;100651.72;;;15.82;63.64
26775;BME280;14362;51.902;7.626;2022-09-03T06:21:06;100657.47;;;16.01;62.17
26775;BME280;14362;51.902;7.626;2022-09-03T06:25:08;100655.91;;;16.04;62.59
26775;BME280;14362;51.902;7.626;2022-09-03T06:29:11;100652.72;;;16.21;61.67
26775;BME280;14362;51.902;7.626;2022-09-03T06:33:12;100646.66;;;16.34;61.36
26775;BME280;14362;51.902;7.626;2022-09-03T06:37:19;100658.97;;;16.45;60.87
26775;BME280;14362;51.902;7.626;2022-09-03T06:41:22;100654.69;;;16.66;60.50
26775;BME280;14362;51.902;7.626;2022-09-03T06:45:24;100653.31;;;16.76;59.66
26775;BME280;14362;51.902;7.626;2022-09-03T06:49:25;100658.06;;;16.91;59.30
26775;BME280;14362;51.902;7.626;2022-09-03T06:53:30;100659.22;;;17.05;58.35
26775;BME280;14362;51.902;7.626;2022-09-03T06:57:32;100665.72;;;17.28;57.76
26775;BME280;14362;51.902;7.626;2022-09-03T07:01:34;100674.31;;;17.50;56.96
26775;BME280;14362;51.902;7.626;2022-09-03T07:05:38;100672.13;;;17.63;56.66
26775;BME280;14362;51.902;7.626;2022-09-03T07:09:41;100678.56;;;17.82;55.71
26775;BME280;14362;51.902;7.626;2022-09-03T07:13:44;100668.22;;;18.12;54.48
26775;BME280;14362;51.902;7.626;2022-09-03T07:17:46;100666.94;;;18.29;53.79
26775;BME280;14362;51.902;7.626;2022-09-03T07:21:48;100663.66;;;18.49;53.34
26775;BME280;14362;51.902;7.626;2022-09-03T07:25:53;100665.56;;;18.67;52.67
26775;BME280;14362;51.902;7.626;2022-09-03T07:29:55;100670.69;;;18.88;52.29
26775;BME280;14362;51.902;7.626;2022-09-03T07:33:57;100670.50;;;19.00;51.59
26775;BME280;14362;51.902;7.626;2022-09-03T07:37:58;100660.31;;;19.21;51.91
26775;BME280;14362;51.902;7.626;2022-09-03T07:42:01;100663.84;;;19.44;50.42
26775;BME280;14362;51.902;7.626;2022-09-03T07:46:03;100658.78;;;19.60;49.75
26775;BME280;14362;51.902;7.626;2022-09-03T07:50:06;100652.06;;;19.71;49.44
26775;BME280;14362;51.902;7.626;2022-09-03T07:54:09;100649.81;;;19.87;49.47
26775;BME280;14362;51.902;7.626;2022-09-03T07:58:12;100654.06;;;20.04;48.16
26775;BME280;14362;51.902;7.626;2022-09-03T08:02:13;100648.53;;;20.18;48.50
26775;BME280;14362;51.902;7.626;2022-09-03T08:06:17;100652.75;;;20.38;47.65
26775;BME280;14362;51.902;7.626;2022-09-03T08:10:18;100657.72;;;20.55;47.83
26775;BME280;14362;51.902;7.626;2022-09-03T08:14:23;100654.56;;;20.63;47.00
26775;BME280;14362;51.902;7.626;2022-09-03T08:18:24;100663.25;;;20.84;46.23
26775;BME280;14362;51.902;7.626;2022-09-03T08:22:26;100657.56;;;20.80;46.98
26775;BME280;14362;51.902;7.626;2022-09-03T08:26:29;100656.38;;;20.88;48.36
26775;BME280;14362;51.902;7.626;2022-09-03T08:30:32;100654.94;;;21.12;46.53
26775;BME280;14362;51.902;7.626;2022-09-03T08:34:35;100656.56;;;21.20;48.48
26775;BME280;14362;51.902;7.626;2022-09-03T08:38:36;100659.78;;;21.11;54.65
26775;BME280;14362;51.902;7.626;2022-09-03T08:42:45;100653.69;;;21.09;50.90
26775;BME280;14362;51.902;7.626;2022-09-03T08:46:54;100655.78;;;21.26;47.12
26775;BME280;14362;51.902;7.626;2022-09-03T08:50:58;100648.13;;;21.27;48.64
26775;BME280;14362;51.902;7.626;2022-09-03T08:55:17;100662.66;;;21.22;48.11
26775;BME280;14362;51.902;7.626;2022-09-03T08:59:21;100660.34;;;21.41;47.73
26775;BME280;14362;51.902;7.626;2022-09-03T09:03:33;100655.50;;;21.49;46.79
26775;BME280;14362;51.902;7.626;2022-09-03T09:07:43;100665.72;;;21.60;46.54
26775;BME280;14362;51.902;7.626;2022-09-03T09:11:52;100653.16;;;21.71;46.45
26775;BME280;14362;51.902;7.626;2022-09-03T09:16:04;100647.53;;;21.92;45.69
26775;BME280;14362;51.902;7.626;2022-09-03T09:20:15;100647.16;;;22.11;45.84
26775;BME280;14362;51.902;7.626;2022-09-03T09:24:22;100639.47;;;22.19;45.19
26775;BME280;14362;51.902;7.626;2022-09-03T09:28:31;100641.16;;;22.34;44.75
26775;BME280;14362;51.902;7.626;2022-09-03T09:32:33;100630.59;;;22.34;43.75
26775;BME280;14362;51.902;7.626;2022-09-03T09:36:42;100637.91;;;22.56;43.69
26775;BME280;14362;51.902;7.626;2022-09-03T09:40:46;100631.78;;;22.68;42.38
26775;BME280;14362;51.902;7.626;2022-09-03T09:44:47;100627.34;;;22.71;42.74
26775;BME280;14362;51.902;7.626;2022-09-03T09:48:51;100627.31;;;22.77;42.81
26775;BME280;14362;51.902;7.626;2022-09-03T09:53:01;100619.56;;;22.85;42.53
26775;BME280;14362;51.902;7.626;2022-09-03T09:57:14;100625.63;;;23.08;42.76
26775;BME280;14362;51.902;7.626;2022-09-03T10:01:21;100630.91;;;23.13;41.12
26775;BME280;14362;51.902;7.626;2022-09-03T10:05:26;100623.59;;;23.15;41.40
26775;BME280;14362;51.902;7.626;2022-09-03T10:09:32;100628.44;;;23.25;41.96
26775;BME280;14362;51.902;7.626;2022-09-03T10:13:39;100618.16;;;23.49;40.62
26775;BME280;14362;51.902;7.626;2022-09-03T10:17:51;100612.44;;;23.52;41.05
26775;BME280;14362;51.902;7.626;2022-09-03T10:21:57;100616.50;;;23.58;40.44
26775;BME280;14362;51.902;7.626;2022-09-03T10:26:06;100613.16;;;23.70;40.22
26775;BME280;14362;51.902;7.626;2022-09-03T10:30:11;100615.66;;;23.65;40.94
26775;BME280;14362;51.902;7.626;2022-09-03T10:34:17;100608.63;;;23.86;39.89
26775;BME280;14362;51.902;7.626;2022-09-03T10:38:26;100620.06;;;23.76;41.13
26775;BME280;14362;51.902;7.626;2022-09-03T10:42:42;100610.69;;;23.86;40.36
26775;BME280;14362;51.902;7.626;2022-09-03T10:46:55;100609.34;;;24.01;39.83
26775;BME280;14362;51.902;7.626;2022-09-03T10:51:00;100604.84;;;24.03;39.60
26775;BME280;14362;51.902;7.626;2022-09-03T10:55:13;100594.97;;;24.22;39.62
26775;BME280;14362;51.902;7.626;2022-09-03T10:59:33;100593.63;;;24.33;39.04
26775;BME280;14362;51.902;7.626;2022-09-03T11:03:44;100593.34;;;24.21;39.58
26775;BME280;14362;51.902;7.626;2022-09-03T11:07:52;100591.94;;;24.39;39.09
26775;BME280;14362;51.902;7.626;2022-09-03T11:12:00;100590.25;;;24.49;38.96
26775;BME280;14362;51.902;7.626;2022-09-03T11:16:07;100589.84;;;24.50;39.88
26775;BME280;14362;51.902;7.626;2022-09-03T11:20:16;100588.03;;;24.70;38.40
26775;BME280;14362;51.902;7.626;2022-09-03T11:24:21;100591.72;;;24.64;38.70
26775;BME280;14362;51.902;7.626;2022-09-03T11:28:31;100592.78;;;24.80;39.44
26775;BME280;14362;51.902;7.626;2022-09-03T11:32:45;100587.41;;;24.89;38.82
26775;BME280;14362;51.902;7.626;2022-09-03T11:36:49;100578.81;;;24.92;38.99
26775;BME280;14362;51.902;7.626;2022-09-03T11:40:58;100583.66;;;24.95;38.82
26775;BME280;14362;51.902;7.626;2022-09-03T11:45:22;100585.47;;;25.16;37.76
26775;BME280;14362;51.902;7.626;2022-09-03T11:49:43;100584.31;;;25.10;38.41
26775;BME280;14362;51.902;7.626;2022-09-03T11:53:54;100573.56;;;25.24;38.88
26775;BME280;14362;51.902;7.626;2022-09-03T11:57:56;100566.56;;;25.59;37.86
26775;BME280;14362;51.902;7.626;2022-09-03T12:02:01;100571.22;;;25.76;37.06
26775;BME280;14362;51.902;7.626;2022-09-03T12:06:19;100564.88;;;25.65;36.83
26775;BME280;14362;51.902;7.626;2022-09-03T12:10:30;100568.28;;;25.53;37.85
26775;BME280;14362;51.902;7.626;2022-09-03T12:14:41;100566.41;;;25.69;36.87
26775;BME280;14362;51.902;7.626;2022-09-03T12:18:48;100561.47;;;25.73;37.32
26775;BME280;14362;51.902;7.626;2022-09-03T12:22:53;100566.34;;;25.73;36.66
26775;BME280;14362;51.902;7.626;2022-09-03T12:26:56;100562.84;;;25.62;37.04
26775;BME280;14362;51.902;7.626;2022-09-03T12:31:06;100553.63;;;25.81;37.63
26775;BME280;14362;51.902;7.626;2022-09-03T12:35:14;100561.59;;;25.93;37.07
26775;BME280;14362;51.902;7.626;2022-09-03T12:39:18;100550.47;;;25.72;36.59
26775;BME280;14362;51.902;7.626;2022-09-03T12:43:26;100554.31;;;25.88;36.62
26775;BME280;14362;51.902;7.626;2022-09-03T12:47:28;100552.66;;;25.91;36.72
26775;BME280;14362;51.902;7.626;2022-09-03T12:51:31;100554.53;;;26.23;35.98
26775;BME280;14362;51.902;7.626;2022-09-03T12:55:36;100538.03;;;26.11;35.99
26775;BME280;14362;51.902;7.626;2022-09-03T12:59:41;100540.28;;;25.97;36.49
26775;BME280;14362;51.902;7.626;2022-09-03T13:03:48;100538.31;;;25.94;37.05
26775;BME280;14362;51.902;7.626;2022-09-03T13:07:55;100540.66;;;25.99;37.51
26775;BME280;14362;51.902;7.626;2022-09-03T13:11:59;100532.78;;;26.06;37.12
26775;BME280;14362;51.902;7.626;2022-09-03T13:20:50;100518.53;;;26.52;35.57
26775;BME280;14362;51.902;7.626;2022-09-03T13:25:13;100520.53;;;26.75;35.28
26775;BME280;14362;51.902;7.626;2022-09-03T13:29:32;100525.69;;;26.83;35.29
26775;BME280;14362;51.902;7.626;2022-09-03T13:33:41;100519.44;;;26.69;35.65
26775;BME280;14362;51.902;7.626;2022-09-03T13:37:48;100515.09;;;26.61;35.54
26775;BME280;14362;51.902;7.626;2022-09-03T13:41:56;100533.09;;;26.81;35.80
26775;BME280;14362;51.902;7.626;2022-09-03T13:46:10;100515.63;;;26.95;35.58
26775;BME280;14362;51.902;7.626;2022-09-03T13:50:18;100527.53;;;27.12;35.08
26775;BME280;14362;51.902;7.626;2022-09-03T13:54:29;100515.03;;;27.03;35.23
26775;BME280;14362;51.902;7.626;2022-09-03T13:58:36;100516.00;;;26.97;35.41
26775;BME280;14362;51.902;7.626;2022-09-03T14:02:53;100511.56;;;27.15;35.77
26775;BME280;14362;51.902;7.626;2022-09-03T14:07:01;100506.63;;;27.35;35.81
26775;BME280;14362;51.902;7.626;2022-09-03T14:11:18;100510.66;;;27.37;35.95
26775;BME280;14362;51.902;7.626;2022-09-03T14:15:25;100522.34;;;27.27;36.43
26775;BME280;14362;51.902;7.626;2022-09-03T14:19:38;100505.19;;;27.43;35.63
26775;BME280;14362;51.902;7.626;2022-09-03T14:23:46;100508.88;;;27.43;36.09
26775;BME280;14362;51.902;7.626;2022-09-03T14:27:49;100512.75;;;27.53;36.03
26775;BME280;14362;51.902;7.626;2022-09-03T14:32:21;100509.34;;;27.58;36.02
26775;BME280;14362;51.902;7.626;2022-09-03T14:36:29;100519.97;;;27.41;36.12
26775;BME280;14362;51.902;7.626;2022-09-03T14:40:39;100520.16;;;27.15;36.76
26775;BME280;14362;51.902;7.626;2022-09-03T14:44:52;100527.16;;;26.91;37.76
26775;BME280;14362;51.902;7.626;2022-09-03T14:49:16;100522.41;;;26.85;37.82
26775;BME280;14362;51.902;7.626;2022-09-03T14:53:52;100528.41;;;26.90;38.10
26775;BME280;14362;51.902;7.626;2022-09-03T14:58:11;100531.38;;;27.06;38.21
26775;BME280;14362;51.902;7.626;2022-09-03T15:02:45;100528.78;;;26.92;37.87
26775;BME280;14362;51.902;7.626;2022-09-03T15:07:00;100531.28;;;26.90;37.81
26775;BME280;14362;51.902;7.626;2022-09-03T15:11:14;100534.03;;;26.74;38.15
26775;BME280;14362;51.902;7.626;2022-09-03T15:15:19;100532.63;;;26.63;38.30
26775;BME280;14362;51.902;7.626;2022-09-03T15:19:55;100537.03;;;26.67;38.73
26775;BME280;14362;51.902;7.626;2022-09-03T15:24:05;100536.94;;;26.71;38.42
26775;BME280;14362;51.902;7.626;2022-09-03T15:28:16;100539.22;;;26.60;38.80
26775;BME280;14362;51.902;7.626;2022-09-03T15:32:37;100538.25;;;26.47;38.93
26775;BME280;14362;51.902;7.626;2022-09-03T15:36:44;100532.50;;;26.24;38.83
26775;BME280;14362;51.902;7.626;2022-09-03T15:40:50;100537.72;;;26.29;39.05
26775;BME280;14362;51.902;7.626;2022-09-03T15:45:01;100544.72;;;26.01;38.53
26775;BME280;14362;51.902;7.626;2022-09-03T15:49:07;100547.59;;;26.01;38.83
26775;BME280;14362;51.902;7.626;2022-09-03T15:53:18;100550.09;;;25.96;39.00
26775;BME280;14362;51.902;7.626;2022-09-03T15:57:26;100550.00;;;25.77;39.28
26775;BME280;14362;51.902;7.626;2022-09-03T16:01:38;100544.75;;;25.72;39.97
26775;BME280;14362;51.902;7.626;2022-09-03T16:05:46;100552.16;;;25.69;39.74
26775;BME280;14362;51.902;7.626;2022-09-03T16:09:58;100553.47;;;25.61;40.09
26775;BME280;14362;51.902;7.626;2022-09-03T16:14:10;100553.22;;;25.52;40.64
26775;BME280;14362;51.902;7.626;2022-09-03T16:18:23;100555.75;;;25.47;40.44
26775;BME280;14362;51.902;7.626;2022-09-03T16:22:30;100564.66;;;25.49;40.00
26775;BME280;14362;51.902;7.626;2022-09-03T16:26:33;100564.31;;;25.47;39.80
26775;BME280;14362;51.902;7.626;2022-09-03T16:30:49;100559.38;;;25.47;39.67
26775;BME280;14362;51.902;7.626;2022-09-03T16:35:02;100566.41;;;25.39;39.22
26775;BME280;14362;51.902;7.626;2022-09-03T16:39:15;100567.69;;;25.38;39.29
26775;BME280;14362;51.902;7.626;2022-09-03T16:43:25;100577.25;;;25.21;39.41
26775;BME280;14362;51.902;7.626;2022-09-03T16:47:38;100579.22;;;25.28;39.17
26775;BME280;14362;51.902;7.626;2022-09-03T16:51:47;100590.81;;;25.10;39.43
26775;BME280;14362;51.902;7.626;2022-09-03T16:56:10;100588.03;;;25.03;39.55
26775;BME280;14362;51.902;7.626;2022-09-03T17:00:19;100589.75;;;24.97;39.42
26775;BME280;14362;51.902;7.626;2022-09-03T17:04:52;100595.47;;;24.94;39.60
26775;BME280;14362;51.902;7.626;2022-09-03T17:09:06;100589.94;;;24.80;39.58
26775;BME280;14362;51.902;7.626;2022-09-03T17:13:37;100605.59;;;24.65;40.32
26775;BME280;14362;51.902;7.626;2022-09-03T17:17:50;100598.72;;;24.59;40.02
26775;BME280;14362;51.902;7.626;2022-09-03T17:22:05;100602.03;;;24.51;40.33
26775;BME280;14362;51.902;7.626;2022-09-03T17:26:20;100596.00;;;24.38;40.80
26775;BME280;14362;51.902;7.626;2022-09-03T17:30:27;100602.94;;;24.41;40.87
26775;BME280;14362;51.902;7.626;2022-09-03T17:34:50;100601.78;;;24.31;40.67
26775;BME280;14362;51.902;7.626;2022-09-03T17:39:16;100603.50;;;24.18;40.93
26775;BME280;14362;51.902;7.626;2022-09-03T17:43:29;100610.91;;;24.12;41.04
26775;BME280;14362;51.902;7.626;2022-09-03T17:47:47;100613.41;;;24.03;41.97
26775;BME280;14362;51.902;7.626;2022-09-03T17:52:00;100614.66;;;23.99;41.27
26775;BME280;14362;51.902;7.626;2022-09-03T17:56:05;100621.25;;;23.85;41.72
26775;BME280;14362;51.902;7.626;2022-09-03T18:00:21;100628.59;;;23.80;41.74
26775;BME280;14362;51.902;7.626;2022-09-03T18:04:32;100630.25;;;23.70;41.76
26775;BME280;14362;51.902;7.626;2022-09-03T18:08:43;100647.00;;;23.54;41.79
26775;BME280;14362;51.902;7.626;2022-09-03T18:12:50;100651.09;;;23.50;42.04
26775;BME280;14362;51.902;7.626;2022-09-03T18:17:00;100649.50;;;23.42;42.34
26775;BME280;14362;51.902;7.626;2022-09-03T18:21:07;100657.25;;;23.31;43.43
26775;BME280;14362;51.902;7.626;2022-09-03T18:25:28;100654.84;;;23.22;43.46
26775;BME280;14362;51.902;7.626;2022-09-03T18:29:53;100663.41;;;23.15;43.01
26775;BME280;14362;51.902;7.626;2022-09-03T18:34:16;100659.75;;;23.04;43.67
26775;BME280;14362;51.902;7.626;2022-09-03T18:38:38;100670.72;;;22.99;43.78
26775;BME280;14362;51.902;7.626;2022-09-03T18:43:04;100676.03;;;22.86;43.66
26775;BME280;14362;51.902;7.626;2022-09-03T18:47:39;100686.59;;;22.82;44.25
26775;BME280;14362;51.902;7.626;2022-09-03T18:52:06;100695.94;;;22.76;44.46
26775;BME280;14362;51.902;7.626;2022-09-03T18:56:34;100700.81;;;22.69;44.67
26775;BME280;14362;51.902;7.626;2022-09-03T19:01:03;100695.53;;;22.60;44.67
26775;BME280;14362;51.902;7.626;2022-09-03T19:05:29;100699.97;;;22.58;44.95
26775;BME280;14362;51.902;7.626;2022-09-03T19:09:55;100707.69;;;22.50;44.72
26775;BME280;14362;51.902;7.626;2022-09-03T19:14:26;100697.56;;;22.46;44.98
26775;BME280;14362;51.902;7.626;2022-09-03T19:19:02;100708.91;;;22.46;45.19
26775;BME280;14362;51.902;7.626;2022-09-03T19:23:24;100712.56;;;22.39;45.31
26775;BME280;14362;51.902;7.626;2022-09-03T19:27:52;100708.50;;;22.37;45.75
26775;BME280;14362;51.902;7.626;2022-09-03T19:32:18;100709.31;;;22.34;46.13
26775;BME280;14362;51.902;7.626;2022-09-03T19:36:49;100711.69;;;22.28;45.88
26775;BME280;14362;51.902;7.626;2022-09-03T19:41:16;100718.59;;;22.20;46.64
26775;BME280;14362;51.902;7.626;2022-09-03T19:45:47;100717.34;;;22.11;47.00
26775;BME280;14362;51.902;7.626;2022-09-03T19:50:13;100716.91;;;22.02;47.36
26775;BME280;14362;51.902;7.626;2022-09-03T19:54:36;100724.59;;;21.91;47.63
26775;BME280;14362;51.902;7.626;2022-09-03T19:58:59;100729.81;;;21.82;48.25
26775;BME280;14362;51.902;7.626;2022-09-03T20:03:23;100731.03;;;21.74;48.82
26775;BME280;14362;51.902;7.626;2022-09-03T20:07:44;100736.22;;;21.65;49.07
26775;BME280;14362;51.902;7.626;2022-09-03T20:12:06;100731.69;;;21.54;49.64
26775;BME280;14362;51.902;7.626;2022-09-03T20:16:15;100740.19;;;21.47;50.13
26775;BME280;14362;51.902;7.626;2022-09-03T20:20:26;100743.41;;;21.45;50.40
26775;BME280;14362;51.902;7.626;2022-09-03T20:24:37;100755.09;;;21.33;51.15
26775;BME280;14362;51.902;7.626;2022-09-03T20:28:55;100753.41;;;21.25;51.97
26775;BME280;14362;51.902;7.626;2022-09-03T20:33:10;100762.66;;;21.15;52.18
26775;BME280;14362;51.902;7.626;2022-09-03T20:37:25;100762.22;;;21.10;53.11
26775;BME280;14362;51.902;7.626;2022-09-03T20:41:35;100768.25;;;21.01;53.56
26775;BME280;14362;51.902;7.626;2022-09-03T20:45:53;100768.19;;;20.98;53.05
26775;BME280;14362;51.902;7.626;2022-09-03T20:50:02;100775.88;;;20.94;53.79
26775;BME280;14362;51.902;7.626;2022-09-03T20:54:19;100776.59;;;20.87;53.77
26775;BME280;14362;51.902;7.626;2022-09-03T20:58:26;100780.63;;;20.83;54.36
26775;BME280;14362;51.902;7.626;2022-09-03T21:02:39;100784.66;;;20.82;54.67
26775;BME280;14362;51.902;7.626;2022-09-03T21:06:50;100791.41;;;20.70;55.22
26775;BME280;14362;51.902;7.626;2022-09-03T21:10:57;100796.63;;;20.65;56.03
26775;BME280;14362;51.902;7.626;2022-09-03T21:15:07;100798.91;;;20.53;56.39
26775;BME280;14362;51.902;7.626;2022-09-03T21:19:19;100798.03;;;20.45;57.34
26775;BME280;14362;51.902;7.626;2022-09-03T21:23:24;100801.56;;;20.35;57.32
26775;BME280;14362;51.902;7.626;2022-09-03T21:27:32;100810.38;;;20.27;57.81
26775;BME280;14362;51.902;7.626;2022-09-03T21:31:41;100812.31;;;20.19;58.36
26775;BME280;14362;51.902;7.626;2022-09-03T21:35:50;100816.69;;;20.13;59.04
26775;BME280;14362;51.902;7.626;2022-09-03T21:39:54;100818.97;;;20.04;59.39
26775;BME280;14362;51.902;7.626;2022-09-03T21:44:01;100817.25;;;19.96;60.00
26775;BME280;14362;51.902;7.626;2022-09-03T21:48:06;100810.69;;;19.89;60.40